x

Virginia Beach 64 Nm East Of Virginia Beach, Va (44014) Wave Buoy

12:50 - Fri 28th Apr 2017 All times are EDT. -4 hours from GMT.

  • Sig Wave height 4.6ft
  • Swell Direction
  • Peak Period 8s
  • Average Period 5s
  • Wind
    16mph, 18mph gusts
  • Sea Temp 57°f
  • Luft Temp 61°f
  • Sea Pressure 1015.3mb
  • Virginia Beach 64 Nm East Of Virginia Beach, Va
  • Virginia Beach 64 Nm East Of Virginia Beach, Va

More Historic Weather Station data

Upgrade to MSW Pro to gain access to the past 30 days of data for over 8000 Wavebouys and Weather Stations around the globe.

Join Pro

Comparision Forecast

View Surf forecast
   
Fr 04/28 12:50 4.5ft 8s 5s 16 18 mph 1015.3mb 57f 61f
Do 04/27 11:50 4.5ft 9s 6s 16 18 mph 1014.6mb 57f 61f
10:50 4.5ft 8s 6s 16
mph
1014.4mb 57f 61f
9:50 4.5ft 9s 6s 13
mph
1014.1mb 57f 61f
7:50 4.5ft 9s 6s 18 20 mph 1013.1mb 57f 62f
6:50 4.5ft 9s 6s 16
mph
1013mb 58f 63f
5:50 4.5ft 8s 6s 13
mph
1012.9mb 58f 62f
4:50 5ft 9s 7s 13
mph
1013mb 57f 62f
3:50 4.5ft 9s 6s 11 13 mph 1013.2mb 57f 61f
2:50 5ft 9s 7s 11 13 mph 1013.3mb 57f 61f
1:50 5ft 9s 7s 11 13 mph 1014mb 57f 60f
12:50 5ft 9s 7s 11
mph
1014.7mb 56f 60f
11:50 4.5ft 10s 7s 11 13 mph 1014.8mb 56f 60f
10:50 5ft 10s 7s 9 11 mph 1014.5mb 56f 59f
9:50 5ft 9s 7s 11 13 mph 1014.3mb 55f 59f
8:50 5ft 10s 7s 11 13 mph 1014.2mb 55f 61f
7:50 5ft 9s 7s 11 13 mph 1013.7mb 55f 59f
6:50 5ft 10s 8s 9 11 mph 1013.1mb 55f 59f
5:50 4.5ft 9s 8s 11 13 mph 1012.2mb 55f 59f
4:50 5ft 9s 8s 11 13 mph 1011.7mb 55f 60f
3:50 5ft 10s 8s 9 11 mph 1011.6mb 55f 59f
2:50 5ft 10s 8s 9 11 mph 1011.7mb 56f 59f
1:50 4.5ft 9s 8s 9 11 mph 1011.9mb 56f 59f
12:50 5ft 9s 8s 7
mph
1012.1mb 56f 58f
Mi 04/26 11:50 5ft 10s 8s 7 9 mph 1012.3mb 56f 58f
10:50 5ft 10s 8s 7 9 mph 1012.4mb 56f 58f
9:50 6ft 9s 8s 9 11 mph 1012.1mb 57f 58f
8:50 5ft 8s 7s 7 9 mph 1011.3mb 57f 57f
7:50 5ft 10s 7s 7
mph
1011mb 58f 58f
6:50 6ft 9s 7s 4
mph
1010.8mb 58f 58f
5:50 5.5ft 10s 7s 2 4 mph 1010.6mb 58f 59f
4:50 6ft 9s 7s 4
mph
1009.7mb 58f 58f
3:50 6ft 9s 7s 2 4 mph 1009.6mb 57f 58f
2:50 6.5ft 9s 7s 4 7 mph 1009.7mb 56f 58f
1:50 6ft 9s 7s 4
mph
1009.9mb 56f 57f
12:50 7ft 10s 7s 9 11 mph 1009.8mb 55f 57f
11:50 7ft 9s 8s 9 11 mph 1009.8mb 55f 56f
10:50 6ft 8s 7s 11 13 mph 1008.9mb 54f 56f
9:50 7ft 10s 8s 9 11 mph 1008.6mb 54f 56f
8:50 6.5ft 9s 7s 9 11 mph 1008.1mb 54f 56f
7:50 6.5ft 10s 7s 7 9 mph 1007.2mb 54f 56f
6:50 6.5ft 9s 7s 7 9 mph 1006.4mb 54f 56f
5:50 6.5ft 9s 7s 7 9 mph 1005.4mb 54f 57f
4:50 7ft 9s 7s 7
mph
1004.7mb 54f 55f
3:50 7.5ft 9s 7s 7 9 mph 1004.4mb 54f 55f
2:50 7ft 8s 7s 2 4 mph 1004.6mb 54f 55f
1:50 8ft 10s 7s  -  2 mph 1004.9mb 54f 55f
12:50 9ft 10s 7s 4 7 mph 1005.1mb 54f 56f
Di 04/25 11:50 8ft 9s 7s 4 7 mph 1005.1mb 55f 56f
10:50 8.5ft 10s 7s 4 7 mph 1004.9mb 55f 57f
9:50 9ft 9s 7s 4
mph
1004.5mb 55f 56f
8:50 9.5ft 9s 7s 7 9 mph 1003.7mb 55f 57f
7:50 9.5ft 11s 7s 11 13 mph 1003.3mb 55f 59f
6:50 10.5ft 11s 7s 11 13 mph 1003.2mb 55f 57f
5:50 11ft 11s 8s 11 16 mph 1002.5mb 55f 57f
4:50 10.5ft 11s 8s 4 11 mph 1001.8mb 55f 59f
3:50 11ft 10s 8s 4 9 mph 1002.9mb 55f 62f
2:50 11.5ft 11s 8s 16 18 mph 1003.4mb 55f 61f
1:50 12ft 11s 8s 11 13 mph 1004.2mb 55f 59f
12:50 13ft 11s 8s 4 9 mph 1005.4mb 55f 59f
11:50 14ft 11s 8s 18 20 mph 1005.5mb 54f 60f
10:50 15.5ft 11s 8s 7 9 mph 1006.3mb 54f 58f
9:50 16ft 10s 8s 4 9 mph 1005.5mb 54f 58f
8:50 15ft 10s 8s 13 18 mph 1005mb 54f 59f
7:50 15ft 11s 8s 25 29 mph 1003.8mb 54f 62f
6:50 17ft 11s  -  25 29 mph 1003.5mb 54f 62f
5:50 15.5ft 10s 8s 25 29 mph 1004.3mb 54f 62f
4:50 13ft 10s 7s 20 25 mph 1005.1mb 54f 62f
3:50 12.5ft 10s 7s 16 22 mph 1006.3mb 54f 61f
2:50 10.5ft 8s 7s 13 27 mph 1007.4mb 54f 60f
1:50 10.5ft 9s 6s 22 27 mph 1008.3mb 54f 62f
12:50 10.5ft 8s 7s 22 27 mph 1009.3mb 54f 62f
Mo 04/24 11:50 9.5ft 8s 7s 18 27 mph 1009.9mb 54f 62f
10:50 8.5ft 7s 6s 18 20 mph 1010.6mb 54f 63f
9:50 7ft 8s 6s 13
mph
1011.2mb 54f 60f
8:50 7ft 7s 6s 11 13 mph 1011.5mb 54f 61f
7:50 6ft 7s 6s 11 13 mph 1011.3mb 54f 60f
6:50 6ft 7s 6s 13
mph
1011.5mb 55f 60f
5:50 6ft 6s 6s 11 16 mph 1011.7mb 55f 60f
4:50 6ft 6s 6s 13
mph
1011.3mb 55f 61f
3:50 5.5ft 7s 6s 9 11 mph 1011.9mb 55f 60f
2:50 5ft 6s 6s 11
mph
1012.6mb 54f 60f
1:50 4.5ft 11s 6s 11 13 mph 1013.1mb 54f 60f
12:50 5ft 8s 6s 11
mph
1013.9mb 54f 59f
11:50 5ft 8s 6s 9
mph
1014.2mb 54f 59f
10:50 5ft 8s 6s 11 13 mph 1014.2mb 53f 59f
9:50 5ft 6s 6s 11 13 mph 1014.2mb 53f 58f
8:50 5ft 8s 6s 9 11 mph 1014.3mb 53f 61f
7:50 5ft 8s 6s 13
mph
1014.1mb 53f 58f
6:50 6ft 8s 6s 13 16 mph 1013.7mb 53f 58f